createdAt,value
2019-03-29T00:01:55.355Z,1.85
2019-03-29T00:06:58.435Z,1.87
2019-03-29T00:12:01.282Z,2.12
2019-03-29T00:17:04.230Z,2.04
2019-03-29T00:22:07.208Z,1.93
2019-03-29T00:27:10.286Z,1.99
2019-03-29T00:32:13.256Z,2.02
2019-03-29T00:37:16.078Z,2.29
2019-03-29T00:42:18.883Z,1.96
2019-03-29T00:47:21.851Z,2.00
2019-03-29T00:52:24.781Z,2.04
2019-03-29T00:57:27.693Z,2.09
2019-03-29T01:02:30.558Z,2.17
2019-03-29T01:07:33.725Z,2.25
2019-03-29T01:12:36.528Z,2.33
2019-03-29T01:17:39.712Z,2.33
2019-03-29T01:22:42.621Z,2.22
2019-03-29T01:27:46.092Z,2.39
2019-03-29T01:32:47.876Z,2.08
2019-03-29T01:37:50.924Z,2.40
2019-03-29T01:42:53.565Z,2.24
2019-03-29T01:47:56.696Z,2.34
2019-03-29T01:52:59.588Z,2.29
2019-03-29T01:58:02.430Z,2.04
2019-03-29T02:03:05.260Z,2.22
2019-03-29T02:08:08.206Z,2.37
2019-03-29T02:13:11.428Z,2.32
2019-03-29T02:18:14.309Z,2.28
2019-03-29T02:23:18.037Z,2.42
2019-03-29T02:28:20.951Z,2.51
2019-03-29T02:33:23.777Z,2.76
2019-03-29T02:38:26.621Z,2.66
2019-03-29T02:43:29.542Z,2.75
2019-03-29T02:48:32.485Z,2.94
2019-03-29T02:53:35.401Z,2.73
2019-03-29T02:58:38.212Z,2.69
2019-03-29T03:03:41.194Z,2.54
2019-03-29T03:08:44.176Z,2.71
2019-03-29T03:13:47.160Z,2.53
2019-03-29T03:18:50.219Z,2.37
2019-03-29T03:23:53.190Z,2.17
2019-03-29T03:28:56.242Z,2.06
2019-03-29T03:33:59.176Z,2.43
2019-03-29T03:39:02.120Z,2.14
2019-03-29T03:44:05.006Z,2.46
2019-03-29T03:49:07.721Z,2.68
2019-03-29T03:54:10.685Z,2.50
2019-03-29T03:59:13.724Z,2.34
2019-03-29T04:04:17.234Z,2.28
2019-03-29T04:09:20.179Z,2.08
2019-03-29T04:14:23.211Z,2.36
2019-03-29T04:19:26.158Z,2.18
2019-03-29T04:24:28.831Z,2.12
2019-03-29T04:29:31.519Z,1.87
2019-03-29T04:34:34.450Z,2.04
2019-03-29T04:39:37.109Z,2.04
2019-03-29T04:44:40.116Z,2.29
2019-03-29T04:49:43.115Z,2.88
2019-03-29T04:54:46.337Z,2.76
2019-03-29T04:59:48.919Z,3.61
2019-03-29T05:04:51.579Z,3.30
2019-03-29T05:09:54.369Z,3.62
2019-03-29T05:14:57.511Z,3.94
2019-03-29T05:20:00.389Z,4.31
2019-03-29T05:25:03.070Z,4.08
2019-03-29T05:30:05.859Z,4.40
2019-03-29T05:35:09.170Z,4.39
2019-03-29T05:40:12.070Z,4.76
2019-03-29T05:45:15.177Z,4.91
2019-03-29T05:50:17.979Z,5.42
2019-03-29T05:55:32.007Z,5.76
2019-03-29T06:00:23.144Z,6.22
2019-03-29T06:05:26.269Z,6.33
2019-03-29T06:10:29.239Z,5.93
2019-03-29T06:15:33.206Z,6.18
2019-03-29T06:20:36.319Z,6.29
2019-03-29T06:25:39.054Z,5.61
2019-03-29T06:30:42.063Z,5.76
2019-03-29T06:35:45.086Z,5.46
2019-03-29T06:41:01.832Z,5.55
2019-03-29T06:45:50.855Z,5.15
2019-03-29T06:50:53.971Z,5.14
2019-03-29T06:55:59.332Z,5.29
2019-03-29T07:00:59.138Z,5.10
2019-03-29T07:06:01.801Z,5.35
2019-03-29T07:11:16.502Z,4.78
2019-03-29T07:16:07.938Z,5.06
2019-03-29T07:21:20.863Z,5.18
2019-03-29T07:26:13.252Z,5.05
2019-03-29T07:31:16.018Z,4.98
2019-03-29T07:36:19.080Z,5.17
2019-03-29T07:41:31.770Z,4.72
2019-03-29T07:46:24.365Z,4.36
2019-03-29T07:51:27.216Z,4.22
2019-03-29T07:56:30.167Z,3.97
2019-03-29T08:01:32.993Z,4.21
2019-03-29T08:06:36.050Z,4.21
2019-03-29T08:11:46.202Z,4.03
2019-03-29T08:16:41.257Z,3.79
2019-03-29T08:21:44.164Z,3.71
2019-03-29T08:26:47.083Z,4.07
2019-03-29T08:31:49.989Z,3.79
2019-03-29T08:36:52.976Z,3.60
2019-03-29T08:42:00.346Z,3.48
2019-03-29T08:46:58.528Z,3.44
2019-03-29T08:52:01.490Z,3.42
2019-03-29T08:57:04.405Z,3.45
2019-03-29T09:02:07.316Z,3.47
2019-03-29T09:07:10.294Z,4.61
2019-03-29T09:12:14.355Z,4.51
2019-03-29T09:17:15.922Z,4.64
2019-03-29T09:22:18.797Z,4.38
2019-03-29T09:27:21.842Z,3.63
2019-03-29T09:32:24.745Z,3.97
2019-03-29T09:37:27.829Z,4.21
2019-03-29T09:42:30.870Z,3.79
2019-03-29T09:47:38.575Z,3.87
2019-03-29T09:52:36.140Z,3.66
2019-03-29T09:57:38.989Z,3.64
2019-03-29T10:02:41.871Z,3.71
2019-03-29T10:07:44.928Z,4.01
2019-03-29T10:12:47.798Z,3.79
2019-03-29T10:17:50.796Z,3.99
2019-03-29T10:22:53.749Z,4.02
2019-03-29T10:27:56.621Z,3.71
2019-03-29T10:32:59.324Z,3.94
2019-03-29T10:38:02.095Z,3.56
2019-03-29T10:43:05.051Z,3.54
2019-03-29T10:48:07.976Z,3.09
2019-03-29T10:53:10.850Z,2.69
2019-03-29T10:58:13.751Z,2.74
2019-03-29T11:03:16.657Z,2.51
2019-03-29T11:08:19.331Z,2.70
2019-03-29T11:13:21.910Z,2.48
2019-03-29T11:18:24.698Z,2.72
2019-03-29T11:23:27.462Z,2.60
2019-03-29T11:28:30.336Z,2.76
2019-03-29T11:33:33.128Z,2.57
2019-03-29T11:38:36.028Z,3.07
2019-03-29T11:43:38.954Z,3.20
2019-03-29T11:48:42.219Z,2.98
2019-03-29T11:53:45.202Z,3.36
2019-03-29T11:58:48.147Z,3.71
2019-03-29T12:03:51.151Z,4.14
2019-03-29T12:08:57.041Z,3.66
2019-03-29T12:13:56.499Z,4.70
2019-03-29T12:18:59.526Z,3.88
2019-03-29T12:24:02.543Z,4.26
2019-03-29T12:29:05.543Z,4.13
2019-03-29T12:34:08.349Z,3.85
2019-03-29T12:39:11.401Z,3.58
2019-03-29T12:44:14.357Z,3.21
2019-03-29T12:49:17.361Z,3.13
2019-03-29T12:54:20.677Z,2.96
2019-03-29T12:59:23.696Z,2.92
2019-03-29T13:04:26.668Z,2.75
2019-03-29T13:09:29.738Z,2.95
2019-03-29T13:14:32.623Z,2.62
2019-03-29T13:19:35.562Z,2.41
2019-03-29T13:24:38.466Z,2.37
2019-03-29T13:29:41.549Z,2.66
2019-03-29T13:34:44.462Z,1.96
2019-03-29T13:39:47.518Z,2.53
2019-03-29T13:44:50.721Z,2.47
2019-03-29T13:49:53.558Z,2.83
2019-03-29T13:54:56.258Z,2.33
2019-03-29T13:59:59.294Z,1.90
2019-03-29T14:05:02.111Z,2.15
2019-03-29T14:10:04.779Z,1.44
2019-03-29T14:15:07.909Z,1.71
2019-03-29T14:20:11.027Z,1.12
2019-03-29T14:25:14.222Z,0.97
2019-03-29T14:30:16.960Z,0.87
2019-03-29T14:35:19.902Z,0.71
2019-03-29T14:40:23.377Z,0.75
2019-03-29T14:45:26.047Z,0.90
2019-03-29T14:50:29.248Z,0.61
2019-03-29T14:55:32.195Z,0.65
2019-03-29T15:00:35.602Z,0.61
2019-03-29T15:05:38.435Z,0.54
2019-03-29T15:10:41.446Z,0.65
2019-03-29T15:15:44.983Z,0.69
2019-03-29T15:20:53.718Z,0.77
2019-03-29T15:25:50.813Z,0.76
2019-03-29T15:30:53.734Z,0.74
2019-03-29T15:35:56.647Z,0.68
2019-03-29T15:40:59.701Z,0.83
2019-03-29T15:46:02.537Z,0.67
2019-03-29T15:51:05.794Z,0.72
2019-03-29T15:56:08.655Z,1.01
2019-03-29T16:01:11.580Z,0.56
2019-03-29T16:06:14.701Z,0.68
2019-03-29T16:11:17.560Z,0.74
2019-03-29T16:16:20.690Z,0.82
2019-03-29T16:21:23.808Z,0.89
2019-03-29T16:26:26.577Z,0.84
2019-03-29T16:31:29.231Z,0.81
2019-03-29T16:36:32.202Z,0.72
2019-03-29T16:41:35.006Z,0.89
2019-03-29T16:46:37.749Z,1.02
2019-03-29T16:51:40.632Z,0.76
2019-03-29T16:56:43.630Z,0.83
2019-03-29T17:01:47.476Z,1.03
2019-03-29T17:06:50.458Z,1.04
2019-03-29T17:11:53.359Z,0.86
2019-03-29T17:16:56.526Z,0.87
2019-03-29T17:21:59.424Z,0.77
2019-03-29T17:27:03.896Z,1.13
2019-03-29T17:32:07.052Z,0.96
2019-03-29T17:37:10.210Z,0.84
2019-03-29T17:42:12.852Z,0.90
2019-03-29T17:47:15.772Z,0.94
2019-03-29T17:52:18.602Z,0.82
2019-03-29T17:57:22.098Z,0.88
2019-03-29T18:02:25.087Z,0.94
2019-03-29T18:07:28.112Z,0.87
2019-03-29T18:12:31.077Z,0.94
2019-03-29T18:17:33.920Z,1.14
2019-03-29T18:22:37.069Z,1.28
2019-03-29T18:27:41.658Z,1.24
2019-03-29T18:32:45.633Z,1.28
2019-03-29T18:37:48.696Z,1.56
2019-03-29T18:42:51.659Z,1.37
2019-03-29T18:47:54.882Z,1.38
2019-03-29T18:52:57.935Z,1.37
2019-03-29T18:58:01.024Z,1.48
2019-03-29T19:03:03.927Z,1.23
2019-03-29T19:08:07.041Z,1.12
2019-03-29T19:13:10.071Z,1.30
2019-03-29T19:18:13.208Z,1.20
2019-03-29T19:23:16.125Z,1.21
2019-03-29T19:28:19.027Z,1.06
2019-03-29T19:33:22.105Z,1.01
2019-03-29T19:38:25.286Z,0.92
2019-03-29T19:43:28.352Z,1.04
2019-03-29T19:48:31.419Z,1.22
2019-03-29T19:53:34.566Z,0.95
2019-03-29T19:58:37.533Z,0.93
2019-03-29T20:03:40.703Z,1.02
2019-03-29T20:08:43.692Z,0.93
2019-03-29T20:13:46.586Z,1.27
2019-03-29T20:18:49.273Z,1.27
2019-03-29T20:23:52.459Z,1.38
2019-03-29T20:28:56.321Z,1.39
2019-03-29T20:33:59.588Z,1.77
2019-03-29T20:39:02.798Z,1.84
2019-03-29T20:44:04.126Z,2.31
2019-03-29T20:49:07.126Z,2.39
2019-03-29T20:54:10.282Z,2.41
2019-03-29T20:59:13.274Z,2.55
2019-03-29T21:04:16.170Z,2.60
2019-03-29T21:09:19.083Z,2.33
2019-03-29T21:14:22.027Z,1.83
2019-03-29T21:19:25.009Z,2.15
2019-03-29T21:24:28.084Z,2.06
2019-03-29T21:29:31.016Z,1.97
2019-03-29T21:34:34.154Z,2.11
2019-03-29T21:39:37.217Z,2.16
2019-03-29T21:44:40.315Z,1.93
2019-03-29T21:49:43.714Z,2.32
2019-03-29T21:54:46.859Z,2.13
2019-03-29T21:59:49.832Z,2.20
2019-03-29T22:04:53.003Z,2.12
2019-03-29T22:09:55.843Z,2.15
2019-03-29T22:14:59.052Z,2.15
2019-03-29T22:20:02.225Z,2.32
2019-03-29T22:25:05.406Z,2.20
2019-03-29T22:30:08.294Z,2.07
2019-03-29T22:35:11.239Z,2.10
2019-03-29T22:40:14.235Z,2.26
2019-03-29T22:45:17.167Z,2.31
2019-03-29T22:50:20.044Z,2.31
2019-03-29T22:55:22.761Z,2.16
2019-03-29T23:00:25.412Z,2.10
2019-03-29T23:05:28.548Z,2.35
2019-03-29T23:10:31.497Z,2.55
2019-03-29T23:15:34.480Z,2.50
2019-03-29T23:20:37.569Z,2.58
2019-03-29T23:25:40.377Z,3.13
2019-03-29T23:30:43.180Z,2.38
2019-03-29T23:35:46.187Z,2.90
2019-03-29T23:40:49.186Z,2.92
2019-03-29T23:45:52.272Z,2.99
2019-03-29T23:50:55.343Z,3.30
2019-03-29T23:55:58.300Z,3.35
